createdAt,value
2023-05-19T00:00:23.949Z,79.22
2023-05-19T00:01:23.942Z,80.28
2023-05-19T00:02:23.923Z,80.69
2023-05-19T00:03:23.979Z,81.00
2023-05-19T00:04:23.900Z,81.10
2023-05-19T00:05:23.881Z,81.20
2023-05-19T00:06:23.867Z,81.00
2023-05-19T00:07:23.845Z,81.10
2023-05-19T00:08:23.891Z,81.45
2023-05-19T00:09:23.823Z,81.65
2023-05-19T00:10:23.802Z,81.96
2023-05-19T00:11:23.796Z,82.62
2023-05-19T00:12:23.777Z,83.23
2023-05-19T00:13:23.777Z,83.44
2023-05-19T00:14:23.821Z,83.09
2023-05-19T00:15:23.738Z,82.82
2023-05-19T00:16:23.850Z,82.71
2023-05-19T00:17:23.769Z,82.71
2023-05-19T00:18:23.702Z,82.96
2023-05-19T00:19:23.802Z,83.44
2023-05-19T00:20:23.663Z,83.23
2023-05-19T00:21:23.681Z,83.13
2023-05-19T00:22:23.664Z,83.03
2023-05-19T00:23:23.644Z,83.03
2023-05-19T00:24:23.663Z,83.33
2023-05-19T00:25:23.602Z,82.71
2023-05-19T00:26:23.581Z,82.92
2023-05-19T00:27:23.592Z,82.82
2023-05-19T00:28:23.579Z,82.62
2023-05-19T00:29:23.564Z,82.51
2023-05-19T00:30:23.558Z,82.62
2023-05-19T00:31:23.583Z,82.31
2023-05-19T00:32:23.544Z,82.47
2023-05-19T00:33:23.525Z,82.68
2023-05-19T00:34:23.514Z,82.27
2023-05-19T00:35:23.484Z,81.59
2023-05-19T00:36:23.459Z,81.79
2023-05-19T00:37:23.458Z,82.10
2023-05-19T00:38:23.441Z,82.41
2023-05-19T00:39:23.492Z,82.96
2023-05-19T00:40:23.421Z,83.13
2023-05-19T00:41:23.407Z,83.23
2023-05-19T00:42:23.410Z,83.13
2023-05-19T00:43:23.383Z,82.99
2023-05-19T00:44:23.410Z,81.96
2023-05-19T00:45:23.357Z,82.17
2023-05-19T00:46:23.379Z,81.86
2023-05-19T00:47:23.325Z,81.45
2023-05-19T00:48:23.300Z,81.76
2023-05-19T00:49:23.293Z,82.00
2023-05-19T00:50:23.295Z,82.00
2023-05-19T00:51:23.272Z,82.00
2023-05-19T00:52:23.262Z,81.90
2023-05-19T00:53:23.268Z,82.10
2023-05-19T00:54:23.239Z,83.06
2023-05-19T00:55:23.225Z,83.03
2023-05-19T00:56:23.241Z,82.45
2023-05-19T00:57:23.194Z,82.45
2023-05-19T00:58:23.185Z,82.86
2023-05-19T00:59:23.150Z,83.06
2023-05-19T01:00:23.151Z,82.65
2023-05-19T01:01:23.192Z,82.86
2023-05-19T01:02:23.216Z,83.20
2023-05-19T01:03:23.304Z,83.51
2023-05-19T01:04:23.112Z,83.72
2023-05-19T01:05:23.073Z,83.76
2023-05-19T01:06:23.062Z,83.97
2023-05-19T01:07:23.053Z,84.58
2023-05-19T01:08:23.060Z,84.89
2023-05-19T01:09:23.039Z,84.99
2023-05-19T01:10:23.048Z,84.89
2023-05-19T01:11:23.022Z,84.85
2023-05-19T01:12:22.999Z,84.54
2023-05-19T01:13:22.985Z,84.54
2023-05-19T01:14:22.967Z,84.03
2023-05-19T01:15:22.944Z,83.83
2023-05-19T01:16:23.040Z,84.17
2023-05-19T01:17:22.943Z,84.38
2023-05-19T01:18:22.920Z,84.27
2023-05-19T01:19:22.936Z,84.07
2023-05-19T01:20:22.911Z,84.89
2023-05-19T01:21:22.876Z,85.20
2023-05-19T01:22:22.970Z,84.89
2023-05-19T01:23:22.869Z,84.89
2023-05-19T01:24:22.893Z,84.48
2023-05-19T01:25:22.841Z,84.79
2023-05-19T01:26:22.813Z,84.69
2023-05-19T01:27:22.828Z,84.54
2023-05-19T01:28:22.795Z,84.13
2023-05-19T01:29:22.770Z,84.34
2023-05-19T01:30:22.753Z,84.03
2023-05-19T01:31:22.771Z,83.92
2023-05-19T01:32:22.779Z,83.72
2023-05-19T01:33:22.722Z,83.51
2023-05-19T01:34:22.727Z,83.62
2023-05-19T01:35:22.709Z,83.72
2023-05-19T01:36:22.721Z,83.86
2023-05-19T01:37:22.664Z,84.17
2023-05-19T01:38:22.670Z,83.86
2023-05-19T01:39:22.652Z,84.07
2023-05-19T01:40:22.643Z,84.11
2023-05-19T01:41:22.626Z,84.62
2023-05-19T01:42:22.624Z,85.17
2023-05-19T01:43:22.580Z,85.17
2023-05-19T01:44:22.578Z,85.59
2023-05-19T01:45:22.586Z,86.06
2023-05-19T01:46:22.573Z,85.75
2023-05-19T01:47:22.555Z,85.34
2023-05-19T01:48:22.554Z,85.55
2023-05-19T01:49:22.523Z,85.24
2023-05-19T01:50:22.545Z,85.10
2023-05-19T01:51:22.493Z,84.42
2023-05-19T01:52:22.486Z,84.62
2023-05-19T01:53:22.456Z,84.62
2023-05-19T01:54:22.472Z,84.52
2023-05-19T01:55:22.442Z,84.69
2023-05-19T01:56:22.433Z,84.27
2023-05-19T01:57:22.439Z,84.27
2023-05-19T01:58:22.398Z,83.90
2023-05-19T01:59:22.396Z,83.90
2023-05-19T02:00:22.382Z,84.42
2023-05-19T02:01:22.421Z,84.31
2023-05-19T02:02:22.349Z,84.52
2023-05-19T02:03:22.349Z,84.62
2023-05-19T02:04:22.327Z,84.62
2023-05-19T02:05:22.336Z,84.31
2023-05-19T02:06:22.321Z,84.00
2023-05-19T02:07:22.298Z,84.35
2023-05-19T02:08:22.290Z,84.77
2023-05-19T02:09:22.260Z,85.03
2023-05-19T02:10:22.245Z,84.66
2023-05-19T02:11:22.262Z,84.93
2023-05-19T02:12:22.224Z,85.34
2023-05-19T02:13:22.208Z,85.03
2023-05-19T02:14:22.223Z,85.03
2023-05-19T02:15:22.192Z,84.62
2023-05-19T02:16:22.204Z,84.31
2023-05-19T02:17:22.199Z,84.21
2023-05-19T02:18:22.150Z,84.11
2023-05-19T02:19:22.237Z,84.31
2023-05-19T02:20:22.229Z,84.11
2023-05-19T02:21:22.097Z,84.11
2023-05-19T02:22:22.096Z,84.21
2023-05-19T02:23:22.095Z,84.42
2023-05-19T02:24:22.061Z,84.42
2023-05-19T02:25:22.058Z,84.00
2023-05-19T02:26:22.031Z,83.70
2023-05-19T02:27:22.032Z,83.65
2023-05-19T02:28:22.007Z,83.65
2023-05-19T02:29:22.023Z,83.76
2023-05-19T02:30:21.987Z,83.65
2023-05-19T02:31:22.041Z,83.65
2023-05-19T02:32:21.957Z,83.55
2023-05-19T02:33:21.938Z,83.14
2023-05-19T02:34:21.936Z,82.93
2023-05-19T02:35:21.933Z,82.83
2023-05-19T02:36:21.899Z,83.04
2023-05-19T02:37:21.885Z,83.25
2023-05-19T02:38:21.904Z,83.04
2023-05-19T02:39:21.860Z,82.63
2023-05-19T02:40:21.865Z,82.93
2023-05-19T02:41:21.848Z,83.65
2023-05-19T02:42:21.860Z,84.07
2023-05-19T02:43:21.822Z,83.76
2023-05-19T02:44:21.822Z,83.55
2023-05-19T02:45:21.779Z,83.45
2023-05-19T02:46:21.909Z,83.11
2023-05-19T02:47:21.803Z,82.79
2023-05-19T02:48:21.758Z,82.28
2023-05-19T02:49:21.756Z,82.07
2023-05-19T02:50:21.724Z,82.01
2023-05-19T02:51:21.717Z,82.32
2023-05-19T02:52:21.726Z,82.93
2023-05-19T02:53:21.713Z,83.14
2023-05-19T02:54:21.688Z,83.25
2023-05-19T02:55:21.672Z,83.14
2023-05-19T02:56:21.690Z,82.93
2023-05-19T02:57:21.645Z,83.45
2023-05-19T02:58:21.640Z,83.55
2023-05-19T02:59:21.932Z,83.97
2023-05-19T03:00:21.603Z,83.83
2023-05-19T03:01:21.625Z,83.20
2023-05-19T03:02:21.583Z,82.73
2023-05-19T03:03:28.705Z,82.73
2023-05-19T03:04:21.553Z,82.83
2023-05-19T03:05:21.558Z,83.45
2023-05-19T03:06:21.516Z,83.45
2023-05-19T03:07:21.551Z,83.65
2023-05-19T03:08:21.527Z,83.59
2023-05-19T03:09:21.478Z,83.70
2023-05-19T03:10:21.465Z,83.70
2023-05-19T03:11:21.471Z,84.31
2023-05-19T03:12:21.460Z,84.72
2023-05-19T03:13:21.446Z,84.93
2023-05-19T03:14:21.418Z,84.42
2023-05-19T03:15:21.417Z,84.21
2023-05-19T03:16:21.432Z,84.42
2023-05-19T03:17:28.507Z,84.42
2023-05-19T03:18:21.390Z,84.45
2023-05-19T03:19:21.491Z,84.77
2023-05-19T03:20:21.355Z,84.87
2023-05-19T03:21:21.339Z,85.49
2023-05-19T03:22:21.379Z,85.59
2023-05-19T03:23:21.302Z,85.65
2023-05-19T03:24:21.296Z,85.44
2023-05-19T03:25:21.292Z,84.93
2023-05-19T03:26:21.281Z,84.27
2023-05-19T03:27:21.276Z,83.80
2023-05-19T03:28:21.262Z,84.31
2023-05-19T03:29:21.242Z,84.42
2023-05-19T03:30:21.219Z,84.42
2023-05-19T03:31:21.228Z,84.62
2023-05-19T03:32:21.357Z,84.52
2023-05-19T03:33:21.261Z,85.03
2023-05-19T03:34:21.171Z,85.03
2023-05-19T03:35:21.183Z,85.34
2023-05-19T03:36:21.172Z,84.69
2023-05-19T03:37:21.137Z,84.42
2023-05-19T03:38:21.118Z,84.42
2023-05-19T03:39:21.114Z,85.14
2023-05-19T03:40:21.109Z,84.83
2023-05-19T03:41:21.087Z,84.72
2023-05-19T03:42:21.075Z,85.03
2023-05-19T03:43:21.063Z,85.03
2023-05-19T03:44:21.033Z,84.72
2023-05-19T03:45:21.030Z,84.83
2023-05-19T03:46:21.158Z,84.99
2023-05-19T03:47:21.006Z,84.99
2023-05-19T03:48:21.445Z,84.89
2023-05-19T03:49:20.979Z,84.58
2023-05-19T03:50:20.982Z,84.07
2023-05-19T03:51:20.953Z,84.48
2023-05-19T03:52:20.946Z,84.69
2023-05-19T03:53:20.945Z,84.75
2023-05-19T03:54:20.918Z,84.13
2023-05-19T03:55:20.885Z,83.51
2023-05-19T03:56:20.880Z,83.83
2023-05-19T03:57:20.875Z,83.89
2023-05-19T03:58:20.898Z,83.68
2023-05-19T03:59:20.871Z,83.48
2023-05-19T04:00:20.862Z,83.58
2023-05-19T04:01:20.807Z,83.48
2023-05-19T04:02:20.816Z,83.37
2023-05-19T04:03:20.967Z,83.27
2023-05-19T04:04:20.804Z,83.27
2023-05-19T04:05:20.758Z,83.58
2023-05-19T04:06:20.745Z,83.68
2023-05-19T04:07:20.785Z,83.58
2023-05-19T04:08:20.728Z,83.27
2023-05-19T04:09:20.696Z,83.23
2023-05-19T04:10:20.693Z,83.23
2023-05-19T04:11:20.687Z,83.13
2023-05-19T04:12:20.679Z,83.03
2023-05-19T04:13:20.655Z,83.13
2023-05-19T04:14:20.658Z,83.64
2023-05-19T04:15:20.639Z,83.33
2023-05-19T04:16:20.666Z,83.29
2023-05-19T04:17:20.616Z,82.78
2023-05-19T04:18:20.640Z,82.78
2023-05-19T04:19:20.614Z,82.99
2023-05-19T04:20:20.582Z,82.78
2023-05-19T04:21:20.567Z,82.47
2023-05-19T04:22:20.541Z,82.23
2023-05-19T04:23:20.541Z,82.33
2023-05-19T04:24:20.530Z,82.23
2023-05-19T04:25:20.525Z,82.23
2023-05-19T04:26:20.480Z,82.23
2023-05-19T04:27:20.483Z,81.99
2023-05-19T04:28:20.472Z,81.99
2023-05-19T04:29:20.437Z,81.68
2023-05-19T04:30:20.467Z,81.48
2023-05-19T04:31:20.516Z,81.27
2023-05-19T04:32:20.410Z,81.27
2023-05-19T04:33:20.380Z,81.37
2023-05-19T04:34:20.399Z,81.23
2023-05-19T04:35:20.360Z,81.02
2023-05-19T04:36:20.366Z,80.72
2023-05-19T04:37:20.393Z,80.72
2023-05-19T04:38:20.350Z,80.92
2023-05-19T04:39:20.320Z,80.62
2023-05-19T04:40:20.299Z,80.31
2023-05-19T04:41:20.306Z,80.37
2023-05-19T04:42:20.310Z,80.78
2023-05-19T04:43:20.300Z,80.27
2023-05-19T04:44:20.268Z,80.07
2023-05-19T04:45:20.243Z,79.93
2023-05-19T04:46:20.233Z,80.13
2023-05-19T04:47:20.285Z,79.93
2023-05-19T04:48:20.197Z,79.52
2023-05-19T04:49:20.200Z,79.41
2023-05-19T04:50:20.202Z,79.31
2023-05-19T04:51:20.169Z,79.41
2023-05-19T04:52:20.160Z,79.21
2023-05-19T04:53:20.140Z,79.00
2023-05-19T04:54:20.148Z,78.80
2023-05-19T04:55:20.114Z,78.97
2023-05-19T04:56:20.095Z,78.56
2023-05-19T04:57:20.099Z,78.56
2023-05-19T04:58:20.078Z,78.45
2023-05-19T04:59:20.039Z,78.45
2023-05-19T05:00:20.072Z,78.45
2023-05-19T05:01:20.071Z,78.11
2023-05-19T05:02:20.234Z,78.31
2023-05-19T05:03:20.157Z,78.42
2023-05-19T05:04:20.019Z,78.42
2023-05-19T05:05:20.001Z,78.63
2023-05-19T05:06:19.967Z,78.42
2023-05-19T05:07:19.973Z,78.31
2023-05-19T05:08:19.940Z,78.52
2023-05-19T05:09:20.027Z,78.69
2023-05-19T05:10:19.903Z,78.59
2023-05-19T05:11:19.914Z,78.49
2023-05-19T05:12:19.880Z,77.76
2023-05-19T05:13:19.882Z,77.53
2023-05-19T05:14:19.885Z,77.53
2023-05-19T05:15:19.879Z,77.63
2023-05-19T05:16:19.874Z,77.63
2023-05-19T05:17:19.826Z,77.53
2023-05-19T05:18:19.797Z,77.42
2023-05-19T05:19:19.827Z,77.12
2023-05-19T05:20:19.785Z,77.19
2023-05-19T05:21:19.774Z,77.08
2023-05-19T05:22:19.763Z,77.19
2023-05-19T05:23:19.748Z,77.29
2023-05-19T05:24:19.762Z,77.80
2023-05-19T05:25:19.723Z,77.29
2023-05-19T05:26:19.704Z,77.15
2023-05-19T05:27:19.699Z,77.15
2023-05-19T05:28:19.687Z,77.25
2023-05-19T05:29:19.666Z,76.53
2023-05-19T05:30:19.651Z,75.99
2023-05-19T05:31:19.633Z,75.68
2023-05-19T05:32:19.700Z,75.68
2023-05-19T05:33:19.698Z,75.48
2023-05-19T05:34:19.595Z,75.27
2023-05-19T05:35:19.615Z,75.27
2023-05-19T05:36:19.601Z,75.04
2023-05-19T05:37:19.565Z,75.13
2023-05-19T05:38:19.554Z,75.24
2023-05-19T05:39:19.535Z,74.79
2023-05-19T05:40:19.527Z,74.49
2023-05-19T05:41:19.500Z,74.79
2023-05-19T05:42:19.492Z,74.08
2023-05-19T05:43:19.487Z,73.64
2023-05-19T05:44:19.456Z,73.23
2023-05-19T05:45:19.473Z,73.13
2023-05-19T05:46:19.491Z,72.82
2023-05-19T05:47:19.456Z,72.89
2023-05-19T05:48:19.415Z,73.10
2023-05-19T05:49:19.411Z,72.48
2023-05-19T05:50:19.401Z,72.17
2023-05-19T05:51:19.387Z,72.04
2023-05-19T05:52:19.399Z,71.63
2023-05-19T05:53:19.350Z,72.14
2023-05-19T05:54:19.353Z,71.12
2023-05-19T05:55:19.334Z,70.99
2023-05-19T05:56:19.354Z,70.68
2023-05-19T05:57:19.327Z,70.07
2023-05-19T05:58:19.282Z,69.87
2023-05-19T05:59:19.281Z,69.97
2023-05-19T06:00:19.252Z,69.76
2023-05-19T06:01:19.260Z,69.73
2023-05-19T06:02:19.299Z,69.53
2023-05-19T06:03:19.317Z,69.73
2023-05-19T06:04:19.214Z,70.01
2023-05-19T06:05:19.245Z,69.90
2023-05-19T06:06:19.219Z,68.99
2023-05-19T06:07:19.171Z,69.09
2023-05-19T06:08:19.161Z,68.99
2023-05-19T06:09:19.162Z,69.16
2023-05-19T06:10:19.158Z,69.36
2023-05-19T06:11:19.104Z,69.26
2023-05-19T06:12:19.138Z,68.35
2023-05-19T06:13:19.098Z,68.24
2023-05-19T06:14:19.085Z,68.35
2023-05-19T06:15:19.069Z,69.53
2023-05-19T06:16:19.097Z,68.52
2023-05-19T06:17:19.039Z,68.62
2023-05-19T06:18:19.015Z,68.62
2023-05-19T06:19:19.054Z,68.32
2023-05-19T06:20:19.014Z,68.82
2023-05-19T06:21:18.987Z,68.52
2023-05-19T06:22:18.976Z,68.28
2023-05-19T06:23:18.956Z,68.49
2023-05-19T06:24:18.949Z,68.28
2023-05-19T06:25:18.936Z,67.57
2023-05-19T06:26:18.959Z,67.57
2023-05-19T06:27:18.942Z,68.18
2023-05-19T06:28:18.901Z,68.18
2023-05-19T06:29:18.894Z,68.18
2023-05-19T06:30:18.860Z,68.08
2023-05-19T06:31:18.888Z,68.66
2023-05-19T06:32:18.852Z,68.45
2023-05-19T06:33:18.847Z,67.54
2023-05-19T06:34:18.810Z,67.64
2023-05-19T06:35:18.806Z,67.64
2023-05-19T06:36:18.781Z,67.64
2023-05-19T06:37:18.789Z,67.44
2023-05-19T06:38:18.781Z,67.74
2023-05-19T06:39:18.748Z,66.83
2023-05-19T06:40:18.725Z,67.33
2023-05-19T06:41:18.760Z,68.55
2023-05-19T06:42:18.720Z,67.74
2023-05-19T06:43:18.699Z,67.74
2023-05-19T06:44:20.474Z,67.44
2023-05-19T06:45:18.678Z,67.91
2023-05-19T06:46:18.665Z,67.41
2023-05-19T06:47:18.631Z,67.81
2023-05-19T06:48:18.635Z,67.58
2023-05-19T06:49:18.659Z,67.17
2023-05-19T06:50:18.616Z,66.33
2023-05-19T06:51:18.593Z,67.24
2023-05-19T06:52:18.575Z,66.53
2023-05-19T06:53:18.571Z,66.30
2023-05-19T06:54:18.562Z,65.39
2023-05-19T06:55:18.525Z,65.99
2023-05-19T06:56:18.534Z,65.59
2023-05-19T06:57:18.537Z,65.79
2023-05-19T06:58:18.510Z,66.09
2023-05-19T06:59:18.489Z,64.78
2023-05-19T07:00:20.514Z,64.58
2023-05-19T07:01:18.606Z,64.47
2023-05-19T07:02:18.465Z,64.37
2023-05-19T07:03:18.639Z,64.88
2023-05-19T07:04:18.475Z,65.45
2023-05-19T07:05:18.548Z,65.56
2023-05-19T07:06:18.402Z,64.95
2023-05-19T07:07:18.393Z,64.92
2023-05-19T07:08:18.357Z,64.51
2023-05-19T07:09:18.362Z,63.50
2023-05-19T07:10:18.381Z,63.47
2023-05-19T07:11:18.324Z,63.17
2023-05-19T07:12:18.343Z,63.27
2023-05-19T07:13:18.350Z,63.24
2023-05-19T07:14:18.274Z,62.43
2023-05-19T07:15:18.306Z,61.92
2023-05-19T07:16:18.361Z,62.84
2023-05-19T07:17:18.235Z,62.90
2023-05-19T07:18:18.241Z,62.40
2023-05-19T07:19:18.214Z,61.79
2023-05-19T07:20:18.214Z,61.99
2023-05-19T07:21:18.197Z,61.59
2023-05-19T07:22:18.193Z,62.40
2023-05-19T07:23:18.174Z,61.79
2023-05-19T07:24:18.139Z,61.59
2023-05-19T07:25:18.163Z,61.96
2023-05-19T07:26:18.137Z,61.87
2023-05-19T07:27:18.121Z,61.25
2023-05-19T07:28:18.095Z,61.05
2023-05-19T07:29:18.124Z,61.87
2023-05-19T07:30:18.076Z,61.36
2023-05-19T07:31:18.065Z,61.25
2023-05-19T07:32:18.113Z,61.05
2023-05-19T07:33:18.040Z,60.93
2023-05-19T07:34:18.029Z,60.82
2023-05-19T07:35:18.011Z,60.82
2023-05-19T07:36:17.993Z,61.03
2023-05-19T07:37:17.991Z,61.23
2023-05-19T07:38:17.954Z,60.62
2023-05-19T07:39:18.001Z,60.52
2023-05-19T07:40:17.985Z,60.12
2023-05-19T07:41:17.971Z,61.13
2023-05-19T07:42:17.919Z,60.62
2023-05-19T07:43:17.915Z,60.45
2023-05-19T07:44:17.894Z,60.75
2023-05-19T07:45:17.882Z,59.64
2023-05-19T07:46:17.882Z,60.35
2023-05-19T07:47:17.851Z,60.55
2023-05-19T07:48:17.893Z,60.14
2023-05-19T07:49:17.820Z,61.46
2023-05-19T07:50:17.806Z,62.37
2023-05-19T07:51:17.797Z,61.63
2023-05-19T07:52:17.775Z,61.53
2023-05-19T07:53:17.779Z,61.23
2023-05-19T07:54:17.736Z,61.63
2023-05-19T07:55:17.838Z,61.33
2023-05-19T07:56:17.730Z,60.65
2023-05-19T07:57:17.708Z,60.72
2023-05-19T07:58:17.719Z,60.62
2023-05-19T07:59:17.699Z,60.82
2023-05-19T08:00:17.670Z,61.43
2023-05-19T08:01:17.667Z,60.82
2023-05-19T08:02:17.650Z,61.13
2023-05-19T08:03:17.993Z,60.82
2023-05-19T08:04:17.820Z,60.82
2023-05-19T08:05:17.596Z,61.13
2023-05-19T08:06:17.585Z,61.63
2023-05-19T08:07:17.596Z,61.51
2023-05-19T08:08:17.552Z,60.80
2023-05-19T08:09:17.542Z,60.29
2023-05-19T08:10:17.559Z,60.19
2023-05-19T08:11:17.530Z,60.80
2023-05-19T08:12:17.522Z,60.80
2023-05-19T08:13:17.497Z,60.39
2023-05-19T08:14:17.500Z,60.39
2023-05-19T08:15:17.524Z,59.86
2023-05-19T08:16:17.551Z,58.95
2023-05-19T08:17:17.502Z,59.05
2023-05-19T08:18:17.431Z,58.95
2023-05-19T08:19:17.609Z,59.05
2023-05-19T08:20:17.435Z,59.38
2023-05-19T08:21:17.396Z,58.54
2023-05-19T08:22:17.403Z,59.45
2023-05-19T08:23:17.445Z,61.17
2023-05-19T08:24:17.371Z,61.47
2023-05-19T08:25:17.341Z,59.63
2023-05-19T08:26:17.339Z,58.12
2023-05-19T08:27:17.375Z,58.22
2023-05-19T08:28:17.324Z,58.32
2023-05-19T08:29:17.288Z,60.44
2023-05-19T08:30:17.286Z,60.21
2023-05-19T08:31:17.311Z,59.09
2023-05-19T08:32:17.269Z,58.49
2023-05-19T08:33:17.309Z,58.69
2023-05-19T08:34:19.138Z,58.80
2023-05-19T08:35:17.237Z,58.87
2023-05-19T08:36:17.226Z,58.06
2023-05-19T08:37:17.198Z,58.47
2023-05-19T08:38:17.188Z,58.06
2023-05-19T08:39:17.162Z,57.65
2023-05-19T08:40:17.202Z,57.65
2023-05-19T08:41:17.132Z,58.03
2023-05-19T08:42:17.146Z,58.54
2023-05-19T08:43:17.140Z,57.50
2023-05-19T08:44:18.903Z,56.90
2023-05-19T08:45:17.104Z,57.10
2023-05-19T08:46:17.152Z,56.37
2023-05-19T08:47:17.095Z,56.57
2023-05-19T08:48:17.075Z,55.16
2023-05-19T08:49:17.042Z,54.46
2023-05-19T08:50:17.026Z,57.07
2023-05-19T08:51:17.014Z,55.56
2023-05-19T08:52:16.996Z,55.87
2023-05-19T08:53:31.944Z,55.26
2023-05-19T08:54:17.992Z,55.06
2023-05-19T08:55:16.997Z,54.55
2023-05-19T08:56:16.946Z,55.36
2023-05-19T08:57:16.924Z,57.07
2023-05-19T08:58:17.009Z,56.74
2023-05-19T08:59:16.917Z,56.74
2023-05-19T09:00:16.925Z,55.00
2023-05-19T09:01:17.218Z,54.60
2023-05-19T09:02:16.868Z,56.21
2023-05-19T09:03:22.755Z,54.50
2023-05-19T09:04:17.952Z,53.77
2023-05-19T09:05:16.870Z,53.17
2023-05-19T09:06:16.850Z,52.97
2023-05-19T09:07:16.800Z,50.89
2023-05-19T09:08:16.781Z,51.79
2023-05-19T09:09:16.779Z,54.13
2023-05-19T09:10:16.784Z,54.73
2023-05-19T09:11:16.755Z,53.92
2023-05-19T09:12:16.761Z,53.60
2023-05-19T09:13:16.706Z,53.20
2023-05-19T09:14:16.709Z,52.09
2023-05-19T09:15:16.707Z,53.70
2023-05-19T09:16:16.718Z,52.42
2023-05-19T09:17:16.686Z,53.83
2023-05-19T09:18:16.654Z,54.53
2023-05-19T09:19:23.751Z,53.00
2023-05-19T09:20:16.634Z,52.69
2023-05-19T09:21:16.604Z,51.79
2023-05-19T09:22:16.596Z,52.89
2023-05-19T09:23:16.854Z,53.67
2023-05-19T09:24:16.580Z,52.67
2023-05-19T09:25:16.538Z,53.37
2023-05-19T09:26:16.534Z,52.26
2023-05-19T09:27:16.523Z,51.66
2023-05-19T09:28:16.528Z,49.95
2023-05-19T09:29:16.536Z,51.94
2023-05-19T09:30:16.494Z,51.24
2023-05-19T09:31:16.461Z,51.72
2023-05-19T09:32:16.484Z,51.49
2023-05-19T09:33:16.516Z,50.46
2023-05-19T09:34:16.461Z,49.93
2023-05-19T09:35:16.426Z,50.04
2023-05-19T09:36:16.468Z,49.33
2023-05-19T09:37:16.393Z,49.93
2023-05-19T09:38:16.379Z,48.53
2023-05-19T09:39:16.391Z,48.73
2023-05-19T09:40:16.373Z,49.84
2023-05-19T09:41:16.346Z,49.84
2023-05-19T09:42:16.352Z,48.53
2023-05-19T09:43:16.312Z,47.73
2023-05-19T09:44:16.298Z,47.63
2023-05-19T09:45:16.296Z,48.83
2023-05-19T09:46:16.354Z,49.54
2023-05-19T09:47:16.258Z,50.34
2023-05-19T09:48:16.275Z,49.21
2023-05-19T09:49:16.261Z,48.11
2023-05-19T09:50:16.253Z,47.53
2023-05-19T09:51:16.232Z,47.53
2023-05-19T09:52:16.201Z,49.04
2023-05-19T09:53:16.171Z,48.51
2023-05-19T09:54:16.192Z,48.91
2023-05-19T09:55:16.146Z,47.71
2023-05-19T09:56:16.146Z,47.71
2023-05-19T09:57:16.112Z,47.20
2023-05-19T09:58:16.149Z,47.31
2023-05-19T09:59:16.112Z,48.01
2023-05-19T10:00:16.097Z,47.41
2023-05-19T10:01:16.103Z,47.38
2023-05-19T10:02:16.055Z,47.56
2023-05-19T10:03:16.088Z,47.66
2023-05-19T10:04:16.101Z,46.14
2023-05-19T10:05:16.090Z,46.54
2023-05-19T10:06:16.000Z,45.14
2023-05-19T10:07:16.232Z,45.94
2023-05-19T10:08:15.981Z,45.43
2023-05-19T10:09:15.975Z,45.64
2023-05-19T10:10:15.957Z,44.54
2023-05-19T10:11:15.934Z,45.24
2023-05-19T10:12:15.940Z,44.84
2023-05-19T10:13:15.942Z,44.13
2023-05-19T10:14:15.906Z,44.82
2023-05-19T10:15:15.888Z,45.01
2023-05-19T10:16:15.922Z,43.71
2023-05-19T10:17:15.896Z,44.62
2023-05-19T10:18:15.878Z,43.99
2023-05-19T10:19:15.897Z,43.90
2023-05-19T10:20:15.882Z,44.09
2023-05-19T10:21:15.831Z,43.79
2023-05-19T10:22:15.802Z,44.39
2023-05-19T10:23:15.806Z,44.49
2023-05-19T10:24:15.815Z,45.29
2023-05-19T10:25:15.768Z,44.79
2023-05-19T10:26:15.752Z,45.07
2023-05-19T10:27:15.735Z,44.78
2023-05-19T10:28:15.736Z,44.37
2023-05-19T10:29:15.720Z,43.49
2023-05-19T10:30:16.444Z,42.91
2023-05-19T10:31:15.712Z,43.91
2023-05-19T10:32:15.713Z,44.62
2023-05-19T10:33:15.686Z,44.82
2023-05-19T10:34:15.670Z,44.92
2023-05-19T10:35:15.679Z,44.92
2023-05-19T10:36:15.631Z,43.62
2023-05-19T10:37:15.613Z,44.29
2023-05-19T10:38:15.603Z,44.49
2023-05-19T10:39:15.583Z,45.37
2023-05-19T10:40:15.593Z,44.97
2023-05-19T10:41:15.542Z,42.77
2023-05-19T10:42:15.530Z,42.25
2023-05-19T10:43:15.514Z,43.85
2023-05-19T10:44:15.583Z,42.76
2023-05-19T10:45:15.498Z,41.25
2023-05-19T10:46:15.489Z,42.05
2023-05-19T10:47:15.640Z,42.25
2023-05-19T10:48:15.497Z,42.95
2023-05-19T10:49:15.447Z,43.13
2023-05-19T10:50:15.555Z,42.54
2023-05-19T10:51:15.432Z,42.24
2023-05-19T10:52:15.400Z,43.51
2023-05-19T10:53:15.384Z,42.41
2023-05-19T10:54:15.397Z,42.43
2023-05-19T10:55:15.370Z,42.02
2023-05-19T10:56:15.364Z,41.11
2023-05-19T10:57:15.352Z,43.91
2023-05-19T10:58:15.339Z,42.40
2023-05-19T10:59:15.304Z,41.80
2023-05-19T11:00:15.372Z,42.49
2023-05-19T11:01:15.397Z,42.10
2023-05-19T11:02:15.483Z,41.19
2023-05-19T11:03:15.353Z,40.72
2023-05-19T11:04:15.292Z,41.82
2023-05-19T11:05:15.241Z,41.91
2023-05-19T11:06:15.236Z,41.22
2023-05-19T11:07:15.219Z,42.41
2023-05-19T11:08:15.198Z,41.31
2023-05-19T11:09:15.210Z,42.41
2023-05-19T11:10:15.207Z,42.02
2023-05-19T11:11:15.217Z,41.71
2023-05-19T11:12:15.216Z,42.21
2023-05-19T11:13:15.129Z,41.52
2023-05-19T11:14:15.151Z,41.52
2023-05-19T11:15:15.119Z,40.92
2023-05-19T11:16:15.119Z,41.22
2023-05-19T11:17:15.095Z,41.33
2023-05-19T11:18:15.097Z,40.72
2023-05-19T11:19:15.094Z,41.11
2023-05-19T11:20:15.068Z,41.91
2023-05-19T11:21:15.036Z,41.02
2023-05-19T11:22:15.026Z,40.62
2023-05-19T11:23:15.077Z,40.72
2023-05-19T11:24:15.002Z,41.82
2023-05-19T11:25:14.998Z,41.02
2023-05-19T11:26:14.975Z,41.24
2023-05-19T11:27:14.976Z,41.55
2023-05-19T11:28:14.944Z,42.15
2023-05-19T11:29:14.932Z,41.16
2023-05-19T11:30:15.029Z,41.17
2023-05-19T11:31:14.889Z,41.77
2023-05-19T11:32:14.988Z,42.55
2023-05-19T11:33:14.908Z,41.46
2023-05-19T11:34:14.853Z,41.44
2023-05-19T11:35:14.895Z,42.02
2023-05-19T11:36:14.867Z,42.02
2023-05-19T11:37:14.830Z,41.99
2023-05-19T11:38:14.851Z,40.88
2023-05-19T11:39:14.800Z,39.36
2023-05-19T11:40:14.841Z,40.66
2023-05-19T11:41:14.790Z,40.14
2023-05-19T11:42:14.789Z,39.56
2023-05-19T11:43:14.770Z,39.46
2023-05-19T11:44:14.745Z,40.56
2023-05-19T11:45:14.726Z,39.36
2023-05-19T11:46:14.773Z,39.84
2023-05-19T11:47:14.706Z,40.44
2023-05-19T11:48:14.703Z,39.74
2023-05-19T11:49:14.658Z,38.95
2023-05-19T11:50:14.663Z,39.44
2023-05-19T11:51:14.633Z,40.92
2023-05-19T11:52:14.635Z,39.70
2023-05-19T11:53:14.624Z,39.50
2023-05-19T11:54:14.618Z,39.12
2023-05-19T11:55:14.584Z,38.93
2023-05-19T11:56:14.575Z,39.42
2023-05-19T11:57:14.568Z,39.54
2023-05-19T11:58:14.549Z,39.56
2023-05-19T11:59:14.523Z,40.34
2023-05-19T12:00:14.522Z,40.64
2023-05-19T12:01:14.498Z,39.74
2023-05-19T12:02:14.525Z,39.64
2023-05-19T12:03:14.646Z,39.25
2023-05-19T12:04:14.461Z,39.94
2023-05-19T12:05:14.485Z,39.25
2023-05-19T12:06:14.487Z,38.95
2023-05-19T12:07:14.428Z,40.14
2023-05-19T12:08:14.420Z,39.94
2023-05-19T12:09:14.427Z,39.72
2023-05-19T12:10:14.399Z,39.72
2023-05-19T12:11:14.378Z,39.14
2023-05-19T12:12:14.358Z,40.64
2023-05-19T12:13:14.343Z,40.54
2023-05-19T12:14:14.346Z,39.56
2023-05-19T12:15:14.389Z,40.18
2023-05-19T12:16:14.357Z,40.58
2023-05-19T12:17:14.357Z,40.40
2023-05-19T12:18:14.358Z,41.71
2023-05-19T12:19:14.363Z,41.02
2023-05-19T12:20:14.275Z,40.22
2023-05-19T12:21:14.267Z,41.11
2023-05-19T12:22:14.242Z,42.03
2023-05-19T12:23:14.224Z,42.24
2023-05-19T12:24:14.216Z,42.21
2023-05-19T12:25:14.193Z,42.93
2023-05-19T12:26:14.179Z,42.33
2023-05-19T12:27:14.188Z,42.54
2023-05-19T12:28:14.189Z,41.66
2023-05-19T12:29:14.147Z,42.25
2023-05-19T12:30:14.143Z,42.65
2023-05-19T12:31:14.178Z,42.15
2023-05-19T12:32:14.099Z,41.66
2023-05-19T12:33:14.177Z,42.76
2023-05-19T12:34:14.075Z,42.43
2023-05-19T12:35:14.058Z,41.53
2023-05-19T12:36:14.052Z,41.82
2023-05-19T12:37:14.039Z,41.22
2023-05-19T12:38:14.197Z,41.22
2023-05-19T12:39:14.022Z,41.69
2023-05-19T12:40:14.045Z,42.07
2023-05-19T12:41:14.039Z,41.55
2023-05-19T12:42:14.005Z,41.24
2023-05-19T12:43:14.048Z,40.84
2023-05-19T12:44:13.946Z,40.14
2023-05-19T12:45:13.922Z,40.94
2023-05-19T12:46:13.956Z,41.16
2023-05-19T12:47:13.915Z,40.76
2023-05-19T12:48:13.959Z,41.85
2023-05-19T12:49:13.918Z,40.74
2023-05-19T12:50:13.884Z,40.46
2023-05-19T12:51:13.871Z,40.36
2023-05-19T12:52:13.852Z,41.03